Time;durP1;ratioP1;P1;durP2;ratioP2;P2;SDS_P1;SDS_P2;PMS_P1;PMS_P2;Temp;Humidity;BMP_temperature;BMP_pressure;BME280_temperature;BME280_humidity;BME280_pressure;Samples;Min_cycle;Max_cycle;Signal;HPM_P1;HPM_P2
2024/01/28 00:01:57;;;;;;;991.35;901.45;;;0.80;99.90;;;;;;4985014;28;20535;-78
2024/01/28 00:04:24;;;;;;;1019.80;924.22;;;0.70;99.90;;;;;;4985294;28;20137;-78
2024/01/28 00:06:50;;;;;;;972.33;884.67;;;1.30;99.90;;;;;;4987625;28;20140;-78
2024/01/28 00:09:16;;;;;;;985.33;895.67;;;1.00;99.90;;;;;;5001803;28;20138;-78
2024/01/28 00:11:43;;;;;;;1023.75;927.88;;;1.50;99.90;;;;;;4984561;28;20058;-78
2024/01/28 00:14:09;;;;;;;988.97;898.58;;;0.70;99.90;;;;;;4986245;28;20050;-78
2024/01/28 00:16:35;;;;;;;1040.80;940.97;;;0.60;99.90;;;;;;5003194;28;20496;-78
2024/01/28 00:19:00;;;;;;;967.35;882.05;;;1.80;99.90;;;;;;5002918;28;20042;-78
2024/01/28 00:21:27;;;;;;;989.03;900.78;;;1.70;99.90;;;;;;5004761;28;20049;-78
2024/01/28 00:23:53;;;;;;;965.83;879.40;;;1.30;99.90;;;;;;4988798;28;20054;-79
2024/01/28 00:26:20;;;;;;;984.92;895.72;;;1.10;99.90;;;;;;4984073;28;20035;-78
2024/01/28 00:28:46;;;;;;;992.78;902.83;;;0.50;99.90;;;;;;4996134;28;20053;-78
2024/01/28 00:31:12;;;;;;;1000.65;909.95;;;0.60;99.90;;;;;;4984210;28;20055;-78
2024/01/28 00:33:38;;;;;;;986.00;897.92;;;0.50;99.90;;;;;;4982985;28;20057;-78
2024/01/28 00:36:04;;;;;;;974.22;887.45;;;0.80;99.90;;;;;;4984818;28;20129;-78
2024/01/28 00:38:31;;;;;;;970.72;885.40;;;0.60;99.90;;;;;;4984042;28;20090;-78
2024/01/28 00:40:59;;;;;;;1010.42;917.30;;;0.50;99.90;;;;;;4983724;28;20046;-78
2024/01/28 00:43:24;;;;;;;999.17;908.03;;;0.60;99.90;;;;;;4997678;28;20406;-78
2024/01/28 00:45:50;;;;;;;977.20;889.72;;;1.00;99.90;;;;;;5016597;28;20042;-78
2024/01/28 00:48:16;;;;;;;1002.38;911.67;;;1.00;99.90;;;;;;4984919;28;20046;-78
2024/01/28 00:50:41;;;;;;;1008.60;915.47;;;0.50;99.90;;;;;;4997025;28;20053;-78
2024/01/28 00:53:07;;;;;;;997.40;907.38;;;0.80;99.90;;;;;;5017831;28;20042;-78
2024/01/28 00:55:33;;;;;;;975.53;889.78;;;1.80;99.90;;;;;;4983840;28;20081;-78
2024/01/28 00:58:02;;;;;;;977.00;888.40;;;1.70;99.90;;;;;;4985276;28;20085;-78
2024/01/28 01:00:28;;;;;;;962.90;878.63;;;1.70;99.90;;;;;;4984463;28;20130;-78
2024/01/28 01:02:54;;;;;;;976.95;889.78;;;1.30;99.90;;;;;;4983019;28;20082;-78
2024/01/28 01:05:19;;;;;;;1018.97;924.53;;;1.30;99.90;;;;;;5001428;28;20070;-78
2024/01/28 01:07:45;;;;;;;982.55;895.28;;;0.60;99.90;;;;;;5001284;28;20038;-78
2024/01/28 01:10:11;;;;;;;994.05;905.25;;;0.60;99.90;;;;;;4993310;28;20106;-78
2024/01/28 01:12:36;;;;;;;985.90;897.92;;;0.60;99.90;;;;;;4990652;28;20437;-78
2024/01/28 01:15:03;;;;;;;966.92;881.42;;;1.20;99.90;;;;;;5002498;28;20061;-78
2024/01/28 01:17:29;;;;;;;997.65;905.05;;;0.70;99.90;;;;;;5002151;28;20485;-78
2024/01/28 01:19:55;;;;;;;984.83;895.88;;;1.10;99.90;;;;;;5003414;28;20054;-78
2024/01/28 01:22:20;;;;;;;977.60;891.78;;;0.70;99.90;;;;;;5002878;28;20492;-78
2024/01/28 01:24:46;;;;;;;971.60;885.28;;;0.70;99.90;;;;;;5003134;28;20363;-78
2024/01/28 01:27:13;;;;;;;965.13;879.35;;;0.70;99.90;;;;;;5002990;28;20562;-78
2024/01/28 01:29:38;;;;;;;991.60;902.83;;;0.80;99.90;;;;;;5002439;28;20093;-78
2024/01/28 01:32:04;;;;;;;965.83;881.10;;;0.70;99.90;;;;;;4989954;28;20092;-78
2024/01/28 01:34:30;;;;;;;1006.88;914.47;;;0.80;99.90;;;;;;5005755;28;20042;-78
2024/01/28 01:36:56;;;;;;;1018.25;922.60;;;1.40;99.90;;;;;;5003941;28;20042;-78
2024/01/28 01:39:21;;;;;;;962.58;878.33;;;1.30;99.90;;;;;;4988247;28;20047;-78
2024/01/28 01:41:47;;;;;;;973.55;886.65;;;1.20;99.90;;;;;;4985979;28;20646;-78
2024/01/28 01:44:13;;;;;;;967.78;883.55;;;1.30;99.90;;;;;;4986384;28;20137;-78
2024/01/28 01:46:41;;;;;;;968.53;882.78;;;1.60;99.90;;;;;;5003279;28;20046;-78
2024/01/28 01:49:08;;;;;;;961.58;876.50;;;1.40;99.90;;;;;;5006690;28;20050;-78
2024/01/28 01:51:34;;;;;;;985.22;896.90;;;1.10;99.90;;;;;;4997088;28;20050;-78
2024/01/28 01:54:01;;;;;;;960.53;877.50;;;1.30;99.90;;;;;;4987569;28;20077;-78
2024/01/28 01:56:31;;;;;;;970.33;885.58;;;1.60;99.90;;;;;;4986133;28;20489;-78
2024/01/28 01:58:57;;;;;;;983.38;895.00;;;0.90;99.90;;;;;;4985949;28;20055;-78
2024/01/28 02:01:25;;;;;;;990.47;902.65;;;1.30;99.90;;;;;;4999267;28;20053;-78
2024/01/28 02:03:54;;;;;;;979.38;893.13;;;1.60;99.90;;;;;;4985942;28;20054;-78
2024/01/28 02:06:20;;;;;;;1001.28;909.70;;;1.40;99.90;;;;;;4987069;28;20455;-78
2024/01/28 02:08:45;;;;;;;1013.92;918.53;;;1.40;99.90;;;;;;4986759;28;20046;-78
2024/01/28 02:11:11;;;;;;;1017.17;922.20;;;1.00;99.90;;;;;;4988080;28;20140;-78
2024/01/28 02:13:38;;;;;;;1001.70;909.80;;;1.40;99.90;;;;;;4985569;28;20050;-78
2024/01/28 02:16:04;;;;;;;981.28;893.60;;;1.50;99.90;;;;;;4987311;28;20046;-78
2024/01/28 02:18:30;;;;;;;982.55;895.72;;;0.90;99.90;;;;;;4985955;28;20061;-78
2024/01/28 02:20:55;;;;;;;990.58;901.92;;;1.40;99.90;;;;;;4989804;28;20039;-78
2024/01/28 02:23:21;;;;;;;966.10;880.53;;;2.10;99.90;;;;;;4987033;28;20490;-78
2024/01/28 02:25:49;;;;;;;963.95;878.53;;;1.40;99.90;;;;;;4988428;28;20038;-78
2024/01/28 02:28:15;;;;;;;1010.17;916.88;;;0.90;99.90;;;;;;4987674;28;20524;-78
2024/01/28 02:30:40;;;;;;;975.85;888.88;;;1.50;99.90;;;;;;4988459;28;20050;-78
2024/01/28 02:33:07;;;;;;;968.05;883.15;;;1.60;99.90;;;;;;4986938;28;20050;-78
2024/01/28 02:35:32;;;;;;;977.40;890.08;;;0.90;99.90;;;;;;5002816;28;20085;-78
2024/01/28 02:37:58;;;;;;;994.50;902.38;;;1.20;99.90;;;;;;5006405;28;20041;-78
2024/01/28 02:40:24;;;;;;;982.90;893.72;;;0.90;99.90;;;;;;4987515;28;20401;-78
2024/01/28 02:42:49;;;;;;;1013.92;920.10;;;1.70;99.90;;;;;;5003607;28;20054;-78
2024/01/28 02:45:15;;;;;;;1009.22;916.67;;;1.90;99.90;;;;;;5005502;28;20049;-78
2024/01/28 02:47:41;;;;;;;1004.45;914.15;;;0.90;99.90;;;;;;5004846;28;20053;-79
2024/01/28 02:50:07;;;;;;;962.30;877.70;;;1.60;99.90;;;;;;5008253;28;20045;-78
2024/01/28 02:52:33;;;;;;;995.47;905.80;;;0.90;99.90;;;;;;5003931;28;20516;-78
2024/01/28 02:54:58;;;;;;;972.47;887.70;;;0.90;99.90;;;;;;5004975;28;20046;-78
2024/01/28 02:57:24;;;;;;;963.83;879.83;;;0.90;99.90;;;;;;5004102;28;20449;-78
2024/01/28 02:59:50;;;;;;;956.53;873.45;;;1.50;99.90;;;;;;4987564;28;20070;-78
2024/01/28 03:02:17;;;;;;;986.83;898.67;;;1.50;99.90;;;;;;4984461;28;20107;-78
2024/01/28 03:04:43;;;;;;;972.00;886.08;;;0.90;99.90;;;;;;4987700;28;20042;-78
2024/01/28 03:07:08;;;;;;;965.05;880.63;;;1.00;99.90;;;;;;4986327;28;20050;-78
2024/01/28 03:09:34;;;;;;;962.05;876.92;;;1.20;99.90;;;;;;4986512;28;20129;-78
2024/01/28 03:12:00;;;;;;;973.95;886.58;;;1.40;99.90;;;;;;4985820;28;20054;-78
2024/01/28 03:14:26;;;;;;;973.58;887.08;;;1.00;99.90;;;;;;4985253;28;20068;-78
2024/01/28 03:16:52;;;;;;;987.38;898.67;;;1.10;99.90;;;;;;4986172;28;20051;-78
2024/01/28 03:19:18;;;;;;;979.13;892.15;;;1.00;99.90;;;;;;4985188;28;20038;-78
2024/01/28 03:21:44;;;;;;;956.75;873.13;;;1.80;99.90;;;;;;4986589;28;20054;-78
2024/01/28 03:24:09;;;;;;;967.53;881.83;;;2.10;99.90;;;;;;4987251;28;20447;-78
2024/01/28 03:26:35;;;;;;;980.05;893.58;;;2.10;99.90;;;;;;5017423;28;20458;-78
2024/01/28 03:29:02;;;;;;;983.75;896.38;;;1.80;99.90;;;;;;5018675;28;20504;-78
2024/01/28 03:31:28;;;;;;;958.80;874.42;;;1.30;99.90;;;;;;4985144;28;20615;-78
2024/01/28 03:33:54;;;;;;;957.20;872.92;;;2.00;99.90;;;;;;4987463;28;20042;-78
2024/01/28 03:36:19;;;;;;;983.83;895.30;;;1.10;99.90;;;;;;4985152;28;20502;-78
2024/01/28 03:38:45;;;;;;;951.10;865.10;;;1.10;99.90;;;;;;4984907;28;20497;-79
2024/01/28 03:41:13;;;;;;;938.97;857.60;;;1.90;99.90;;;;;;4985589;28;20196;-78
2024/01/28 03:43:39;;;;;;;976.85;889.55;;;1.20;99.90;;;;;;4983181;28;20494;-78
2024/01/28 03:46:07;;;;;;;958.13;873.78;;;2.30;99.90;;;;;;4987520;28;20058;-78
2024/01/28 03:48:33;;;;;;;962.80;876.60;;;1.20;99.90;;;;;;4985066;28;20371;-78
2024/01/28 03:50:58;;;;;;;966.75;881.92;;;1.20;99.90;;;;;;4986304;28;20499;-78
2024/01/28 03:53:24;;;;;;;922.50;844.28;;;1.20;99.90;;;;;;4985601;28;20072;-78
2024/01/28 03:55:50;;;;;;;793.20;730.33;;;1.60;99.90;;;;;;4984245;28;20050;-78
2024/01/28 03:58:15;;;;;;;828.72;762.75;;;1.30;99.90;;;;;;4983671;28;20369;-78
2024/01/28 04:00:41;;;;;;;844.97;776.70;;;1.60;99.90;;;;;;4995823;28;20064;-78
2024/01/28 04:03:07;;;;;;;913.08;836.22;;;1.50;99.90;;;;;;5004030;28;20055;-78
2024/01/28 04:05:33;;;;;;;879.08;807.42;;;1.10;99.90;;;;;;5004926;28;20595;-78
2024/01/28 04:08:00;;;;;;;787.63;726.63;;;1.70;99.90;;;;;;5004400;28;20602;-78
2024/01/28 04:10:26;;;;;;;729.10;673.60;;;2.00;99.90;;;;;;5003360;28;20049;-78
2024/01/28 04:12:52;;;;;;;723.97;669.85;;;1.20;99.90;;;;;;5002214;28;20045;-78
2024/01/28 04:15:18;;;;;;;681.35;630.22;;;1.10;99.90;;;;;;5036901;28;20048;-78
2024/01/28 04:17:43;;;;;;;732.03;677.35;;;1.50;99.90;;;;;;5003879;28;20057;-78
2024/01/28 04:20:09;;;;;;;864.42;794.35;;;2.00;99.90;;;;;;5003529;28;20045;-78
2024/01/28 04:22:35;;;;;;;888.58;814.72;;;1.10;99.90;;;;;;5003945;28;20555;-78
2024/01/28 04:25:01;;;;;;;819.65;755.47;;;1.50;99.90;;;;;;5004251;28;20054;-78
2024/01/28 04:27:27;;;;;;;708.85;655.60;;;2.20;99.90;;;;;;5002178;28;20057;-78
2024/01/28 04:29:52;;;;;;;669.72;619.75;;;1.70;99.90;;;;;;5003290;28;20102;-79
2024/01/28 04:32:18;;;;;;;686.58;635.72;;;1.50;99.90;;;;;;4985169;28;20045;-78
2024/01/28 04:34:44;;;;;;;856.55;786.75;;;1.30;99.90;;;;;;5003577;28;20114;-78
2024/01/28 04:37:10;;;;;;;887.95;815.10;;;1.50;99.90;;;;;;5001987;28;20050;-78
2024/01/28 04:39:35;;;;;;;834.50;768.20;;;1.10;99.90;;;;;;5003988;28;20045;-78
2024/01/28 04:42:02;;;;;;;705.28;652.17;;;2.00;99.90;;;;;;5001405;28;20397;-79
2024/01/28 04:44:28;;;;;;;723.30;669.08;;;1.10;99.90;;;;;;5004496;28;20227;-78
2024/01/28 04:46:57;;;;;;;703.13;650.67;;;1.50;99.90;;;;;;5001852;28;20195;-78
2024/01/28 04:49:23;;;;;;;845.72;777.08;;;1.70;99.90;;;;;;5000651;28;20056;-78
2024/01/28 04:51:48;;;;;;;709.35;656.00;;;2.20;99.90;;;;;;4983989;28;20096;-78
2024/01/28 04:54:14;;;;;;;725.65;670.97;;;1.30;99.90;;;;;;4983324;28;20706;-78
2024/01/28 04:56:40;;;;;;;866.33;795.05;;;1.40;99.90;;;;;;4983339;28;20046;-79
2024/01/28 04:59:06;;;;;;;842.75;776.22;;;1.50;99.90;;;;;;4984402;28;20191;-78
2024/01/28 05:01:33;;;;;;;771.20;712.40;;;1.80;99.90;;;;;;4997577;28;20135;-78
2024/01/28 05:04:01;;;;;;;908.08;832.80;;;0.80;99.90;;;;;;4984236;28;20061;-78
2024/01/28 05:06:34;;;;;;;940.35;859.90;;;1.40;99.90;;;;;;4983099;28;20054;-78
2024/01/28 05:09:03;;;;;;;937.47;856.58;;;1.30;99.90;;;;;;4984400;28;20595;-78
2024/01/28 05:11:29;;;;;;;934.80;854.28;;;1.10;99.90;;;;;;4983689;28;20376;-78
2024/01/28 05:13:55;;;;;;;949.58;867.45;;;2.10;99.90;;;;;;4984548;28;20580;-78
2024/01/28 05:16:22;;;;;;;938.22;859.03;;;2.00;99.90;;;;;;5009649;28;20056;-78
2024/01/28 05:18:48;;;;;;;944.72;862.97;;;1.60;99.90;;;;;;5002707;28;20382;-78
2024/01/28 05:21:13;;;;;;;944.15;862.28;;;0.90;99.90;;;;;;5004005;28;20045;-78
2024/01/28 05:23:39;;;;;;;956.47;873.50;;;0.70;99.90;;;;;;5002296;28;20482;-78
2024/01/28 05:26:05;;;;;;;939.53;858.92;;;1.30;99.90;;;;;;5004950;28;20054;-78
2024/01/28 05:28:31;;;;;;;961.03;876.00;;;1.40;99.90;;;;;;5000334;28;20046;-78
2024/01/28 05:30:57;;;;;;;939.70;859.53;;;1.40;99.90;;;;;;5004441;28;20141;-78
2024/01/28 05:33:23;;;;;;;940.97;859.83;;;1.50;99.90;;;;;;5003372;28;20045;-78
2024/01/28 05:35:49;;;;;;;980.63;893.72;;;0.60;99.90;;;;;;4983226;28;20088;-78
2024/01/28 05:38:15;;;;;;;974.67;888.78;;;1.60;99.90;;;;;;4983261;28;20468;-78
2024/01/28 05:40:41;;;;;;;950.95;868.65;;;1.40;99.90;;;;;;4991642;28;20042;-78
2024/01/28 05:43:07;;;;;;;979.08;891.15;;;1.40;99.90;;;;;;4989637;28;20050;-78
2024/01/28 05:45:33;;;;;;;972.08;886.47;;;0.90;99.90;;;;;;4997617;28;20383;-78
2024/01/28 05:48:01;;;;;;;938.58;858.53;;;1.50;99.90;;;;;;4984961;28;20042;-78
2024/01/28 05:50:29;;;;;;;961.17;876.17;;;1.10;99.90;;;;;;4998733;28;20604;-78
2024/01/28 05:52:55;;;;;;;957.67;874.08;;;1.10;99.90;;;;;;4999689;28;20042;-78
2024/01/28 05:55:20;;;;;;;958.60;874.78;;;1.00;99.90;;;;;;5002859;28;20045;-78
2024/01/28 05:57:46;;;;;;;985.20;894.13;;;1.30;99.90;;;;;;4996326;28;20042;-78
2024/01/28 06:00:13;;;;;;;982.00;894.03;;;1.10;99.90;;;;;;4985138;28;20030;-78
2024/01/28 06:02:38;;;;;;;941.33;860.83;;;0.40;99.90;;;;;;4986878;28;20107;-78
2024/01/28 06:05:05;;;;;;;969.03;881.97;;;0.90;99.90;;;;;;4996611;28;20141;-78
2024/01/28 06:07:31;;;;;;;962.90;879.40;;;0.40;99.90;;;;;;4985449;28;20117;-78
2024/01/28 06:09:56;;;;;;;931.50;851.88;;;0.40;99.90;;;;;;4989589;28;20134;-78
2024/01/28 06:12:22;;;;;;;942.17;861.03;;;1.10;99.90;;;;;;4986430;28;20108;-78
2024/01/28 06:14:48;;;;;;;930.05;850.45;;;0.70;99.90;;;;;;4990061;28;20038;-78
2024/01/28 06:17:15;;;;;;;933.58;854.40;;;0.60;99.90;;;;;;4984370;28;20137;-78
2024/01/28 06:19:40;;;;;;;920.75;841.83;;;0.80;99.90;;;;;;4989889;28;20528;-78
2024/01/28 06:22:06;;;;;;;984.97;896.60;;;1.20;99.90;;;;;;4988635;28;20062;-78
2024/01/28 06:24:33;;;;;;;926.83;848.10;;;0.80;99.90;;;;;;4988999;28;20053;-78
2024/01/28 06:26:59;;;;;;;947.65;866.33;;;1.10;99.90;;;;;;4989713;28;20054;-78
2024/01/28 06:29:24;;;;;;;997.28;904.38;;;1.10;99.90;;;;;;4990793;28;20103;-78
2024/01/28 06:31:50;;;;;;;919.42;841.17;;;0.60;99.90;;;;;;4997774;28;20068;-78
2024/01/28 06:34:16;;;;;;;925.95;847.72;;;0.50;99.90;;;;;;5003677;28;20049;-78
2024/01/28 06:36:42;;;;;;;920.58;842.70;;;0.70;99.90;;;;;;5002180;28;20072;-78
2024/01/28 06:39:08;;;;;;;943.00;861.22;;;0.50;99.90;;;;;;5003420;28;20046;-78
2024/01/28 06:41:34;;;;;;;931.67;853.10;;;-0.10;99.90;;;;;;5001704;28;20058;-78
2024/01/28 06:44:03;;;;;;;922.55;844.22;;;0.50;99.90;;;;;;4994135;28;20527;-78
2024/01/28 06:46:29;;;;;;;980.15;890.80;;;0.80;99.90;;;;;;5020088;28;20046;-78
2024/01/28 06:48:54;;;;;;;977.92;889.63;;;0.40;99.90;;;;;;4998112;28;20119;-77
2024/01/28 06:51:20;;;;;;;965.85;881.65;;;0.40;99.90;;;;;;5001855;28;20042;-78
2024/01/28 06:53:47;;;;;;;959.15;872.63;;;0.70;99.90;;;;;;4996541;28;20128;-78
2024/01/28 06:56:13;;;;;;;948.20;863.58;;;0.20;99.90;;;;;;4981573;28;20371;-78
2024/01/28 06:58:39;;;;;;;931.60;851.22;;;-0.10;99.90;;;;;;4984365;28;20054;-78
2024/01/28 07:01:05;;;;;;;975.05;886.53;;;0.40;99.90;;;;;;4998716;28;20050;-79
2024/01/28 07:03:30;;;;;;;966.45;883.78;;;-0.20;99.90;;;;;;5005089;28;20125;-78
2024/01/28 07:05:56;;;;;;;959.78;876.08;;;0.40;99.90;;;;;;4990925;28;20689;-78
2024/01/28 07:08:22;;;;;;;965.92;877.40;;;0.70;99.90;;;;;;5046606;28;20525;-78
2024/01/28 07:10:47;;;;;;;982.88;892.90;;;0.90;99.90;;;;;;4984588;28;20055;-78
2024/01/28 07:13:13;;;;;;;962.78;874.83;;;0.60;99.90;;;;;;4997872;28;20046;-78
2024/01/28 07:15:39;;;;;;;958.95;873.38;;;0.20;99.90;;;;;;4985216;28;20054;-78
2024/01/28 07:18:05;;;;;;;953.78;871.38;;;0.40;99.90;;;;;;4994038;28;20050;-78
2024/01/28 07:20:31;;;;;;;933.28;852.00;;;-0.40;99.90;;;;;;4985839;28;20053;-78
2024/01/28 07:22:56;;;;;;;951.25;866.47;;;0.50;99.90;;;;;;4996143;28;20042;-78
2024/01/28 07:25:22;;;;;;;953.83;869.30;;;-0.20;99.90;;;;;;4989398;28;20163;-78
2024/01/28 07:27:48;;;;;;;953.40;868.88;;;-0.10;99.90;;;;;;4995391;28;20082;-78
2024/01/28 07:30:14;;;;;;;950.63;867.33;;;-0.40;99.90;;;;;;5019870;28;20046;-78
2024/01/28 07:32:40;;;;;;;973.65;884.85;;;-0.40;99.90;;;;;;4977249;28;20110;-78
2024/01/28 07:35:05;;;;;;;996.47;904.50;;;-0.40;99.90;;;;;;4987155;28;20659;-78
2024/01/28 07:37:31;;;;;;;981.10;891.78;;;-0.40;99.90;;;;;;4986179;28;20039;-77
2024/01/28 07:39:57;;;;;;;969.50;884.88;;;0.20;99.90;;;;;;4987750;28;20481;-78
2024/01/28 07:42:22;;;;;;;958.03;872.42;;;0.00;99.90;;;;;;5017770;28;20042;-78
2024/01/28 07:44:48;;;;;;;965.33;880.15;;;-0.30;99.90;;;;;;4987288;28;20074;-78
2024/01/28 07:47:14;;;;;;;959.20;874.17;;;0.00;99.90;;;;;;4988453;28;20034;-78
2024/01/28 07:49:40;;;;;;;966.70;881.83;;;0.80;99.90;;;;;;4984706;28;20042;-78
2024/01/28 07:52:05;;;;;;;965.83;878.97;;;-0.30;99.90;;;;;;4975025;28;20057;-78
2024/01/28 07:54:32;;;;;;;975.22;885.60;;;0.50;99.90;;;;;;4979004;28;20042;-78
2024/01/28 07:56:57;;;;;;;1000.47;907.78;;;0.50;99.90;;;;;;4978194;28;20529;-79
2024/01/28 07:59:23;;;;;;;995.40;905.20;;;0.30;99.90;;;;;;4998764;28;20051;-78
2024/01/28 08:01:49;;;;;;;997.58;907.50;;;1.10;99.90;;;;;;5003682;28;20038;-78
2024/01/28 08:04:15;;;;;;;993.72;902.55;;;0.70;99.90;;;;;;5002497;28;20049;-78
2024/01/28 08:06:40;;;;;;;997.30;904.83;;;-0.10;99.90;;;;;;5005309;28;20050;-78
2024/01/28 08:09:06;;;;;;;984.97;897.25;;;0.10;99.90;;;;;;4984746;28;20050;-78
2024/01/28 08:11:33;;;;;;;984.40;895.75;;;1.10;99.90;;;;;;4994723;28;20190;-78
2024/01/28 08:13:58;;;;;;;990.45;899.90;;;0.80;99.90;;;;;;5003983;28;20050;-78
2024/01/28 08:16:26;;;;;;;996.72;905.45;;;0.10;99.90;;;;;;4995993;28;20072;-78
2024/01/28 08:18:52;;;;;;;987.13;896.35;;;0.10;99.90;;;;;;4991679;28;20046;-78
2024/01/28 08:21:18;;;;;;;972.67;886.22;;;1.20;99.90;;;;;;4993174;28;20046;-79
2024/01/28 08:23:44;;;;;;;990.70;900.88;;;0.40;99.90;;;;;;4990624;28;20053;-78
2024/01/28 08:26:09;;;;;;;998.38;908.28;;;0.80;99.90;;;;;;5009786;28;20661;-79
2024/01/28 08:28:35;;;;;;;977.75;889.85;;;0.50;99.90;;;;;;4986291;28;20146;-79
2024/01/28 08:31:01;;;;;;;993.10;904.67;;;1.10;99.90;;;;;;4987806;28;20528;-78
2024/01/28 08:33:26;;;;;;;978.45;890.55;;;0.60;99.90;;;;;;4974365;28;20129;-78
2024/01/28 08:35:52;;;;;;;981.55;892.28;;;0.50;99.90;;;;;;4971125;28;20038;-79
2024/01/28 08:38:18;;;;;;;1001.20;911.35;;;0.60;99.90;;;;;;5014050;28;20046;-79
2024/01/28 08:40:44;;;;;;;982.70;894.28;;;0.10;99.90;;;;;;5013527;28;20131;-79
2024/01/28 08:43:09;;;;;;;987.33;897.30;;;0.60;99.90;;;;;;4994789;28;20125;-79
2024/01/28 08:45:36;;;;;;;958.67;875.10;;;0.10;99.90;;;;;;5016531;28;20042;-78
2024/01/28 08:48:03;;;;;;;950.45;869.08;;;0.40;99.90;;;;;;4988518;28;20049;-79
2024/01/28 08:50:29;;;;;;;971.50;885.30;;;0.20;99.90;;;;;;4999340;28;20046;-79
2024/01/28 08:52:54;;;;;;;946.28;865.03;;;0.30;99.90;;;;;;4986541;28;20152;-79
2024/01/28 08:55:20;;;;;;;958.33;873.25;;;0.70;99.90;;;;;;5012156;28;20041;-79
2024/01/28 08:57:46;;;;;;;970.00;885.22;;;0.60;99.90;;;;;;4984674;28;20042;-79
2024/01/28 09:00:12;;;;;;;937.30;856.42;;;1.10;99.90;;;;;;4971913;28;20073;-78
2024/01/28 09:02:39;;;;;;;942.90;864.03;;;0.40;99.90;;;;;;4981969;28;20050;-79
2024/01/28 09:05:05;;;;;;;916.40;839.38;;;0.50;99.90;;;;;;4974199;28;20046;-79
2024/01/28 09:07:31;;;;;;;939.83;859.40;;;0.50;99.90;;;;;;4990413;28;20053;-77
2024/01/28 09:09:57;;;;;;;962.05;877.88;;;0.50;99.90;;;;;;4978980;28;20137;-77
2024/01/28 09:12:24;;;;;;;932.33;853.70;;;0.60;99.90;;;;;;5015953;28;20034;-77
2024/01/28 09:14:49;;;;;;;948.72;865.60;;;0.60;99.90;;;;;;4973779;28;20050;-77
2024/01/28 09:17:15;;;;;;;898.53;824.03;;;1.20;99.90;;;;;;5028805;28;20049;-77
2024/01/28 09:19:41;;;;;;;1013.50;915.40;;;0.70;99.90;;;;;;5013125;28;20042;-77
2024/01/28 09:22:07;;;;;;;894.05;820.42;;;0.80;99.90;;;;;;4959071;28;20042;-77
2024/01/28 09:24:32;;;;;;;883.70;811.83;;;0.90;99.90;;;;;;4964647;28;20498;-77
2024/01/28 09:26:58;;;;;;;863.88;794.75;;;1.00;99.90;;;;;;4998487;28;20454;-77
2024/01/28 09:29:27;;;;;;;843.90;777.20;;;1.10;99.90;;;;;;4999789;28;20046;-77
2024/01/28 09:31:56;;;;;;;904.78;829.53;;;1.20;99.90;;;;;;5002214;28;20050;-77
2024/01/28 09:34:23;;;;;;;872.35;803.22;;;2.10;99.90;;;;;;5001844;28;20355;-77
2024/01/28 09:36:49;;;;;;;783.08;722.38;;;1.90;99.90;;;;;;4968659;28;20146;-78
2024/01/28 09:39:15;;;;;;;566.75;526.83;;;1.60;99.90;;;;;;4967390;28;20418;-78
2024/01/28 09:41:43;;;;;;;512.40;477.70;;;1.70;99.90;;;;;;4982287;28;20050;-78
2024/01/28 09:44:09;;;;;;;494.95;461.30;;;1.80;99.90;;;;;;4972768;28;20043;-79
2024/01/28 09:46:37;;;;;;;532.60;495.35;;;1.90;99.90;;;;;;4994416;28;20144;-78
2024/01/28 09:49:03;;;;;;;482.40;450.42;;;2.10;99.90;;;;;;4975217;28;20046;-79
2024/01/28 09:51:29;;;;;;;447.30;417.25;;;2.60;99.90;;;;;;4977952;28;20481;-79
2024/01/28 09:53:55;;;;;;;436.10;408.23;;;2.30;99.90;;;;;;4979568;28;20046;-78
2024/01/28 09:56:22;;;;;;;406.40;380.38;;;2.40;99.90;;;;;;4974244;28;20038;-79
2024/01/28 09:58:48;;;;;;;397.50;372.58;;;2.60;99.90;;;;;;4988358;28;20141;-78
2024/01/28 10:01:14;;;;;;;431.42;403.60;;;2.60;99.90;;;;;;5002063;28;20129;-78
2024/01/28 10:03:42;;;;;;;359.23;336.75;;;2.70;99.90;;;;;;4987011;28;20035;-78
2024/01/28 10:06:08;;;;;;;346.70;325.00;;;2.70;99.90;;;;;;4986937;28;20058;-80
2024/01/28 10:08:34;;;;;;;345.92;324.67;;;2.70;99.90;;;;;;5005903;28;20478;-80
2024/01/28 10:11:01;;;;;;;369.33;346.15;;;3.30;99.90;;;;;;5003249;28;20046;-78
2024/01/28 10:13:29;;;;;;;314.77;295.55;;;3.50;99.90;;;;;;5003754;28;20119;-78
2024/01/28 10:15:56;;;;;;;295.23;277.40;;;3.20;99.90;;;;;;4987901;28;20030;-78
2024/01/28 10:18:23;;;;;;;288.88;271.45;;;2.70;99.90;;;;;;5004435;28;20099;-78
2024/01/28 10:20:49;;;;;;;328.20;307.75;;;2.70;99.90;;;;;;5005535;28;20062;-78
2024/01/28 10:23:16;;;;;;;321.98;302.17;;;2.80;99.90;;;;;;5004171;28;20042;-78
2024/01/28 10:25:43;;;;;;;284.77;266.85;;;2.90;99.90;;;;;;5003670;28;20092;-78
2024/01/28 10:28:09;;;;;;;310.98;292.27;;;3.10;99.90;;;;;;5003949;28;20419;-78
2024/01/28 10:30:35;;;;;;;290.23;272.70;;;3.20;99.90;;;;;;4992805;28;20064;-78
2024/01/28 10:33:01;;;;;;;324.25;304.15;;;3.00;99.90;;;;;;4983077;28;20505;-78
2024/01/28 10:35:28;;;;;;;289.50;271.35;;;2.90;99.90;;;;;;4984426;28;20432;-78
2024/01/28 10:37:56;;;;;;;282.15;264.98;;;2.70;99.90;;;;;;4974752;28;20061;-79
2024/01/28 10:40:30;;;;;;;327.38;307.23;;;2.90;99.90;;;;;;4982860;28;20519;-79
2024/01/28 10:43:00;;;;;;;301.15;283.02;;;2.80;99.90;;;;;;4973123;28;20073;-78
2024/01/28 10:45:27;;;;;;;306.80;287.80;;;2.90;99.90;;;;;;4978847;28;20161;-78
2024/01/28 10:47:55;;;;;;;293.90;276.15;;;3.00;99.90;;;;;;4972351;28;20134;-78
2024/01/28 10:50:24;;;;;;;282.23;265.30;;;3.10;99.90;;;;;;4977379;28;20051;-79
2024/01/28 10:52:51;;;;;;;263.25;247.63;;;3.40;99.90;;;;;;4985226;28;20087;-78
2024/01/28 10:55:20;;;;;;;278.30;261.52;;;3.30;99.90;;;;;;5004106;28;20121;-78
2024/01/28 10:57:46;;;;;;;257.33;241.82;;;3.40;99.90;;;;;;4983091;28;20050;-79
2024/01/28 11:00:14;;;;;;;265.55;249.98;;;3.50;99.90;;;;;;4985731;28;20049;-78
2024/01/28 11:02:41;;;;;;;253.10;237.50;;;3.60;99.90;;;;;;4997921;28;20058;-79
2024/01/28 11:05:07;;;;;;;270.48;254.13;;;3.70;99.90;;;;;;4999438;28;20339;-79
2024/01/28 11:07:34;;;;;;;244.43;229.43;;;3.80;99.90;;;;;;4992992;28;20180;-79
2024/01/28 11:10:00;;;;;;;241.80;227.15;;;3.90;99.90;;;;;;5001320;28;20041;-79
2024/01/28 11:12:27;;;;;;;260.70;244.68;;;4.40;99.90;;;;;;4988212;28;20138;-79
2024/01/28 11:14:53;;;;;;;250.57;235.52;;;4.00;99.90;;;;;;5000667;28;20412;-79
2024/01/28 11:17:19;;;;;;;237.15;222.45;;;4.10;99.90;;;;;;5021997;28;20126;-78
2024/01/28 11:19:44;;;;;;;240.18;225.93;;;4.20;99.90;;;;;;4998199;28;20053;-79
2024/01/28 11:22:16;;;;;;;194.90;183.15;;;4.20;99.90;;;;;;4994714;28;20034;-79
2024/01/28 11:24:52;;;;;;;219.95;206.73;;;4.30;99.90;;;;;;4997887;28;20107;-78
2024/01/28 11:27:20;;;;;;;202.23;187.75;;;4.40;99.90;;;;;;4996180;28;20111;-78
2024/01/28 11:29:47;;;;;;;214.10;199.20;;;4.50;99.90;;;;;;4996357;28;20050;-79
2024/01/28 11:32:14;;;;;;;182.27;171.10;;;4.60;99.90;;;;;;4996576;28;20046;-79
2024/01/28 11:34:44;;;;;;;197.40;185.60;;;4.60;99.90;;;;;;4994896;28;20111;-79
2024/01/28 11:37:14;;;;;;;186.65;175.38;;;4.70;99.90;;;;;;4998048;28;20042;-79
2024/01/28 11:39:46;;;;;;;197.80;184.27;;;4.80;99.90;;;;;;4996694;28;20057;-80
2024/01/28 11:42:13;;;;;;;179.23;167.40;;;4.90;99.90;;;;;;4996270;28;20041;-79
2024/01/28 11:44:43;;;;;;;170.23;159.18;;;4.90;99.90;;;;;;4993827;28;20038;-78
2024/01/28 11:47:13;;;;;;;164.65;154.23;;;5.00;99.90;;;;;;4992449;28;20045;-77
2024/01/28 11:49:39;;;;;;;152.25;143.15;;;5.10;99.90;;;;;;4991560;28;20046;-77
2024/01/28 11:52:07;;;;;;;171.20;160.77;;;5.10;99.90;;;;;;4998013;28;20049;-78
2024/01/28 11:54:33;;;;;;;184.10;172.43;;;5.20;99.90;;;;;;5019889;28;20053;-78
2024/01/28 11:57:00;;;;;;;174.40;163.75;;;5.20;99.90;;;;;;4991931;28;20027;-78
2024/01/28 11:59:26;;;;;;;149.40;140.05;;;5.30;99.90;;;;;;4975531;28;20066;-78
2024/01/28 12:01:52;;;;;;;136.63;128.10;;;5.30;99.90;;;;;;4975177;28;20768;-77
2024/01/28 12:04:19;;;;;;;149.95;140.85;;;5.40;99.90;;;;;;4988706;28;20559;-78
2024/01/28 12:06:46;;;;;;;153.20;143.88;;;5.50;99.90;;;;;;5000825;28;20046;-78
2024/01/28 12:09:12;;;;;;;131.93;123.80;;;5.50;99.90;;;;;;4979140;28;20118;-78
2024/01/28 12:11:38;;;;;;;140.10;131.82;;;5.50;99.90;;;;;;4992520;28;20120;-78